KBHK

Baker Municipal Airport

Baker, Montana, USA
METAR KBHK 191151Z AUTO 28012KT 10SM CLR 04/M02 A2966 RMK AO2 SLP057 60000 T00391022 10072 20022 51007
Observed Flight Rules
Dec-19 @ 11:51 UTC (42 minutes ago) Visual Flight Rules
Wind Visibility Clouds
280° at 12 knots 10 miles
  • Clear skies
Temperatures Readings
Current 4°C / 39°F
Dewpoint -2°C / 28°F
Humidity 65%
Altimeter 29.66" Hg
Pressure 1005.7 hPa
Elevation 902
METAR KBHK 191151Z AUTO 28012KT 10SM CLR 04/M02 A2966 RMK AO2 SLP057 60000 T00391022 10072 20022 51007
Observed Flight Rules
Dec-19 @ 11:51 UTC
(42 minutes ago)
VFR
Wind Visibility
280° at 12 knots 10 miles
Clouds
  • Clear skies
Temperature Dewpoint
4°C / 39°F -2°C / 28°F
Humidity Altimeter Pressure
65% 29.66" Hg 1005.7 hPa